createdAt,value
2018-07-20T00:00:47.760Z,16.50
2018-07-20T00:02:52.568Z,16.50
2018-07-20T00:04:56.920Z,16.40
2018-07-20T00:07:01.328Z,16.30
2018-07-20T00:09:07.324Z,16.40
2018-07-20T00:11:11.455Z,16.20
2018-07-20T00:13:15.839Z,15.90
2018-07-20T00:15:20.262Z,16.10
2018-07-20T00:17:24.596Z,16.00
2018-07-20T00:19:28.669Z,16.00
2018-07-20T00:21:33.236Z,15.90
2018-07-20T00:23:37.628Z,15.80
2018-07-20T00:25:41.996Z,15.80
2018-07-20T00:27:46.380Z,16.00
2018-07-20T00:29:50.829Z,15.90
2018-07-20T00:31:55.472Z,16.10
2018-07-20T00:33:59.804Z,16.20
2018-07-20T00:36:04.132Z,16.10
2018-07-20T00:38:08.469Z,16.00
2018-07-20T00:40:12.785Z,16.00
2018-07-20T00:42:17.227Z,15.80
2018-07-20T00:44:21.601Z,16.00
2018-07-20T00:48:29.769Z,16.10
2018-07-20T00:50:34.361Z,16.10
2018-07-20T00:52:38.693Z,16.10
2018-07-20T00:54:42.961Z,15.90
2018-07-20T00:56:47.228Z,15.90
2018-07-20T00:58:52.073Z,16.00
2018-07-20T01:00:56.309Z,15.70
2018-07-20T01:03:00.653Z,15.50
2018-07-20T01:05:05.273Z,15.60
2018-07-20T01:07:09.673Z,15.60
2018-07-20T01:09:13.929Z,15.70
2018-07-20T01:11:18.561Z,15.60
2018-07-20T01:13:22.822Z,15.70
2018-07-20T01:15:27.167Z,15.80
2018-07-20T01:17:31.705Z,15.50
2018-07-20T01:19:35.950Z,15.40
2018-07-20T01:21:40.229Z,15.50
2018-07-20T01:23:44.837Z,15.50
2018-07-20T01:25:49.104Z,15.50
2018-07-20T01:27:53.380Z,15.30
2018-07-20T01:29:58.287Z,15.30
2018-07-20T01:32:02.529Z,15.40
2018-07-20T01:34:06.774Z,15.60
2018-07-20T01:36:10.930Z,15.50
2018-07-20T01:38:15.478Z,15.30
2018-07-20T01:40:19.705Z,15.40
2018-07-20T01:44:28.062Z,15.40
2018-07-20T01:46:32.658Z,15.40
2018-07-20T01:48:36.941Z,15.40
2018-07-20T01:50:41.602Z,15.50
2018-07-20T01:52:45.812Z,15.40
2018-07-20T01:54:50.156Z,15.30
2018-07-20T01:56:54.382Z,15.40
2018-07-20T01:58:59.093Z,15.40
2018-07-20T02:01:03.337Z,15.20
2018-07-20T02:03:07.905Z,15.10
2018-07-20T02:05:12.141Z,15.00
2018-07-20T02:07:16.650Z,15.10
2018-07-20T02:09:20.941Z,15.00
2018-07-20T02:11:25.205Z,14.80
2018-07-20T02:13:29.965Z,15.00
2018-07-20T02:15:34.533Z,15.00
2018-07-20T02:17:38.986Z,15.10
2018-07-20T02:19:43.413Z,15.20
2018-07-20T02:21:47.370Z,15.20
2018-07-20T02:23:51.669Z,15.20
2018-07-20T02:25:56.331Z,15.10
2018-07-20T02:28:00.637Z,14.90
2018-07-20T02:30:05.485Z,14.80
2018-07-20T02:32:09.765Z,14.90
2018-07-20T02:34:14.054Z,14.90
2018-07-20T02:36:18.750Z,14.90
2018-07-20T02:38:23.074Z,14.90
2018-07-20T02:40:27.318Z,14.90
2018-07-20T02:42:31.734Z,15.00
2018-07-20T02:44:36.054Z,14.90
2018-07-20T02:46:40.458Z,14.90
2018-07-20T02:48:44.793Z,14.90
2018-07-20T02:50:49.733Z,15.00
2018-07-20T02:52:53.990Z,14.90
2018-07-20T02:54:58.236Z,14.80
2018-07-20T02:57:02.567Z,14.70
2018-07-20T02:59:07.153Z,14.80
2018-07-20T03:01:11.414Z,14.90
2018-07-20T03:03:16.349Z,14.70
2018-07-20T03:05:20.584Z,14.70
2018-07-20T03:09:28.734Z,14.70
2018-07-20T03:11:32.993Z,14.80
2018-07-20T03:13:37.580Z,14.60
2018-07-20T03:15:42.245Z,14.60
2018-07-20T03:17:46.621Z,14.60
2018-07-20T03:19:50.572Z,14.50
2018-07-20T03:21:55.381Z,14.40
2018-07-20T03:23:59.966Z,14.30
2018-07-20T03:26:04.424Z,14.50
2018-07-20T03:28:09.115Z,14.60
2018-07-20T03:30:13.739Z,14.60
2018-07-20T03:32:18.215Z,14.70
2018-07-20T03:34:22.501Z,14.70
2018-07-20T03:36:27.084Z,14.70
2018-07-20T03:38:31.349Z,14.70
2018-07-20T03:40:35.949Z,14.70
2018-07-20T03:42:41.757Z,14.70
2018-07-20T03:44:46.025Z,14.70
2018-07-20T03:46:50.284Z,14.80
2018-07-20T03:48:54.556Z,14.80
2018-07-20T03:50:59.010Z,14.80
2018-07-20T03:53:03.250Z,14.80
2018-07-20T03:55:07.823Z,14.80
2018-07-20T03:57:12.317Z,14.80
2018-07-20T04:01:20.531Z,14.80
2018-07-20T04:03:24.781Z,14.90
2018-07-20T04:05:29.069Z,15.00
2018-07-20T04:07:33.311Z,15.00
2018-07-20T04:09:37.657Z,15.10
2018-07-20T04:11:42.324Z,14.90
2018-07-20T04:13:46.617Z,14.90
2018-07-20T04:15:50.881Z,14.90
2018-07-20T04:17:55.453Z,14.90
2018-07-20T04:19:59.789Z,14.90
2018-07-20T04:22:04.406Z,14.90
2018-07-20T04:24:08.661Z,14.90
2018-07-20T04:26:12.945Z,14.90
2018-07-20T04:28:17.525Z,15.10
2018-07-20T04:32:26.056Z,15.30
2018-07-20T04:34:30.305Z,15.30
2018-07-20T04:36:34.870Z,15.30
2018-07-20T04:38:39.405Z,15.40
2018-07-20T04:40:43.697Z,15.50
2018-07-20T04:42:47.946Z,15.40
2018-07-20T04:44:51.958Z,15.40
2018-07-20T04:46:56.217Z,15.40
2018-07-20T04:49:00.487Z,15.40
2018-07-20T04:51:04.745Z,15.40
2018-07-20T04:53:09.009Z,15.60
2018-07-20T04:55:13.581Z,15.70
2018-07-20T04:57:18.153Z,15.60
2018-07-20T04:59:22.417Z,15.70
2018-07-20T05:01:26.672Z,15.70
2018-07-20T05:03:31.397Z,15.70
2018-07-20T05:05:35.649Z,15.70
2018-07-20T05:07:39.900Z,15.80
2018-07-20T05:09:44.788Z,16.00
2018-07-20T05:11:49.381Z,16.00
2018-07-20T05:13:54.281Z,16.10
2018-07-20T05:15:58.950Z,16.20
2018-07-20T05:18:03.228Z,16.10
2018-07-20T05:20:07.861Z,16.10
2018-07-20T05:22:12.101Z,16.30
2018-07-20T05:24:16.711Z,16.30
2018-07-20T05:26:21.857Z,16.30
2018-07-20T05:28:26.396Z,16.40
2018-07-20T05:30:31.100Z,16.40
2018-07-20T05:32:35.414Z,16.30
2018-07-20T05:34:40.149Z,16.40
2018-07-20T05:36:44.721Z,16.40
2018-07-20T05:38:49.051Z,16.40
2018-07-20T05:40:53.621Z,16.40
2018-07-20T05:42:57.881Z,16.30
2018-07-20T05:45:01.930Z,16.50
2018-07-20T05:47:06.365Z,16.60
2018-07-20T05:49:10.637Z,16.70
2018-07-20T05:51:15.242Z,16.70
2018-07-20T05:53:19.696Z,16.60
2018-07-20T05:55:24.813Z,16.60
2018-07-20T05:57:29.422Z,16.80
2018-07-20T05:59:33.761Z,17.00
2018-07-20T06:03:42.455Z,17.10
2018-07-20T06:05:46.722Z,17.10
2018-07-20T06:07:51.043Z,17.10
2018-07-20T06:09:55.627Z,17.00
2018-07-20T06:11:59.881Z,17.00
2018-07-20T06:14:04.474Z,16.90
2018-07-20T06:16:09.425Z,17.00
2018-07-20T06:18:14.561Z,17.20
2018-07-20T06:20:18.817Z,17.30
2018-07-20T06:22:22.945Z,17.40
2018-07-20T06:24:27.174Z,17.50
2018-07-20T06:26:31.405Z,17.60
2018-07-20T06:28:35.505Z,17.70
2018-07-20T06:30:40.082Z,17.60
2018-07-20T06:32:44.673Z,17.60
2018-07-20T06:34:48.958Z,17.70
2018-07-20T06:36:53.256Z,17.70
2018-07-20T06:38:57.833Z,17.80
2018-07-20T06:41:02.128Z,18.00
2018-07-20T06:45:10.913Z,18.10
2018-07-20T06:47:15.331Z,18.20
2018-07-20T06:49:19.240Z,18.40
2018-07-20T06:51:23.509Z,18.40
2018-07-20T06:53:28.093Z,18.40
2018-07-20T06:55:32.334Z,18.40
2018-07-20T06:59:41.042Z,18.60
2018-07-20T07:03:49.193Z,18.90
2018-07-20T07:05:53.481Z,18.90
2018-07-20T07:07:57.721Z,18.80
2018-07-20T07:10:01.967Z,18.70
2018-07-20T07:12:06.177Z,18.80
2018-07-20T07:14:11.106Z,18.80
2018-07-20T07:16:15.393Z,18.90
2018-07-20T07:18:19.393Z,19.00
2018-07-20T07:20:23.381Z,18.80
2018-07-20T07:24:31.286Z,19.30
2018-07-20T07:26:35.881Z,19.40
2018-07-20T07:28:40.130Z,19.20
2018-07-20T07:30:44.387Z,19.30
2018-07-20T07:32:49.009Z,19.40
2018-07-20T07:34:53.149Z,19.40
2018-07-20T07:36:57.146Z,19.60
2018-07-20T07:39:01.584Z,19.50
2018-07-20T07:41:05.591Z,19.50
2018-07-20T07:43:10.025Z,19.60
2018-07-20T07:45:14.297Z,19.90
2018-07-20T07:47:18.514Z,20.10
2018-07-20T07:49:22.855Z,20.30
2018-07-20T07:51:27.281Z,20.40
2018-07-20T07:53:31.547Z,20.60
2018-07-20T07:55:35.806Z,21.00
2018-07-20T07:57:40.125Z,21.20
2018-07-20T07:59:44.709Z,21.30
2018-07-20T08:01:49.277Z,21.20
2018-07-20T08:03:53.901Z,21.20
2018-07-20T08:05:58.166Z,20.90
2018-07-20T08:08:02.488Z,20.70
2018-07-20T08:10:06.969Z,20.70
2018-07-20T08:12:11.587Z,20.50
2018-07-20T08:14:15.550Z,20.70
2018-07-20T08:16:19.829Z,20.90
2018-07-20T08:22:31.724Z,21.60
2018-07-20T08:24:35.822Z,21.60
2018-07-20T08:26:40.401Z,21.40
2018-07-20T08:28:44.640Z,21.30
2018-07-20T08:30:48.904Z,21.40
2018-07-20T08:32:53.193Z,21.60
2018-07-20T08:34:57.513Z,21.60
2018-07-20T08:37:02.219Z,21.60
2018-07-20T08:39:09.529Z,21.80
2018-07-20T08:41:13.798Z,21.70
2018-07-20T08:43:18.226Z,21.50
2018-07-20T08:45:22.826Z,21.60
2018-07-20T08:49:30.977Z,21.40
2018-07-20T08:51:35.098Z,21.20
2018-07-20T08:53:39.405Z,21.40
2018-07-20T08:55:43.650Z,21.50
2018-07-20T08:59:51.831Z,21.80
2018-07-20T09:01:56.323Z,21.90
2018-07-20T09:04:01.309Z,21.90
2018-07-20T09:06:05.613Z,21.80
2018-07-20T09:08:09.965Z,21.80
2018-07-20T09:10:14.309Z,21.80
2018-07-20T09:12:18.907Z,21.70
2018-07-20T09:14:23.631Z,21.60
2018-07-20T09:16:27.904Z,21.60
2018-07-20T09:18:32.477Z,21.80
2018-07-20T09:20:36.859Z,21.90
2018-07-20T09:22:41.282Z,21.80
2018-07-20T09:24:45.656Z,21.80
2018-07-20T09:26:49.885Z,21.90
2018-07-20T09:28:54.377Z,21.80
2018-07-20T09:30:58.689Z,21.90
2018-07-20T09:33:02.926Z,22.00
2018-07-20T09:35:07.493Z,22.10
2018-07-20T09:37:11.751Z,22.20
2018-07-20T09:39:16.315Z,22.30
2018-07-20T09:41:20.554Z,22.30
2018-07-20T09:43:24.797Z,22.30
2018-07-20T09:45:29.160Z,22.30
2018-07-20T09:47:33.749Z,22.30
2018-07-20T09:49:38.008Z,22.30
2018-07-20T09:51:43.041Z,22.40
2018-07-20T09:53:47.318Z,22.50
2018-07-20T09:55:51.400Z,22.50
2018-07-20T09:57:55.817Z,22.40
2018-07-20T09:59:59.802Z,22.30
2018-07-20T10:02:04.051Z,22.40
2018-07-20T10:04:08.849Z,22.40
2018-07-20T10:06:13.193Z,22.50
2018-07-20T10:10:22.413Z,22.50
2018-07-20T10:12:26.987Z,22.50
2018-07-20T10:14:31.460Z,22.40
2018-07-20T10:16:35.416Z,22.50
2018-07-20T10:18:39.409Z,22.60
2018-07-20T10:20:43.998Z,22.80
2018-07-20T10:22:48.297Z,23.00
2018-07-20T10:24:52.534Z,23.00
2018-07-20T10:26:56.837Z,22.90
2018-07-20T10:29:01.386Z,22.80
2018-07-20T10:31:05.641Z,22.80
2018-07-20T10:33:09.580Z,23.00
2018-07-20T10:37:17.558Z,23.40
2018-07-20T10:39:22.317Z,23.30
2018-07-20T10:41:26.761Z,23.30
2018-07-20T10:45:34.861Z,23.40
2018-07-20T10:47:39.452Z,23.40
2018-07-20T10:51:47.388Z,23.60
2018-07-20T10:53:52.075Z,23.70
2018-07-20T10:55:56.797Z,23.70
2018-07-20T10:58:01.033Z,23.70
2018-07-20T11:00:05.991Z,23.90
2018-07-20T11:02:10.305Z,23.80
2018-07-20T11:04:14.534Z,23.80
2018-07-20T11:06:18.553Z,23.70
2018-07-20T11:08:24.217Z,23.70
2018-07-20T11:10:28.527Z,23.80
2018-07-20T11:12:33.148Z,24.00
2018-07-20T11:14:37.158Z,24.30
2018-07-20T11:16:41.533Z,24.40
2018-07-20T11:18:45.801Z,24.50
2018-07-20T11:20:50.038Z,24.50
2018-07-20T11:22:54.601Z,24.40
2018-07-20T11:24:59.213Z,24.50
2018-07-20T11:27:03.773Z,24.50
2018-07-20T11:29:08.461Z,24.50
2018-07-20T11:31:12.717Z,24.60
2018-07-20T11:33:16.945Z,24.70
2018-07-20T11:35:21.181Z,24.70
2018-07-20T11:39:29.464Z,25.10
2018-07-20T11:41:33.748Z,25.20
2018-07-20T11:43:38.397Z,25.80
2018-07-20T11:45:42.849Z,26.30
2018-07-20T11:47:46.873Z,27.20
2018-07-20T11:49:51.121Z,27.50
2018-07-20T11:51:55.708Z,27.80
2018-07-20T11:53:59.669Z,28.10
2018-07-20T11:56:04.403Z,28.40
2018-07-20T11:58:09.121Z,29.30
2018-07-20T12:00:13.769Z,29.70
2018-07-20T12:02:17.705Z,29.40
2018-07-20T12:04:22.058Z,29.70
2018-07-20T12:06:26.616Z,30.10
2018-07-20T12:08:31.051Z,30.20
2018-07-20T12:10:35.434Z,30.30
2018-07-20T12:12:39.401Z,29.40
2018-07-20T12:14:43.973Z,29.40
2018-07-20T12:16:48.569Z,30.10
2018-07-20T12:18:52.905Z,31.10
2018-07-20T12:20:57.041Z,30.90
2018-07-20T12:23:01.011Z,31.10
2018-07-20T12:25:05.305Z,30.60
2018-07-20T12:27:09.565Z,31.00
2018-07-20T12:29:13.862Z,31.40
2018-07-20T12:31:18.193Z,31.00
2018-07-20T12:33:23.061Z,30.20
2018-07-20T12:35:27.343Z,29.80
2018-07-20T12:37:31.269Z,29.90
2018-07-20T12:39:35.238Z,30.20
2018-07-20T12:41:40.082Z,29.50
2018-07-20T12:43:44.365Z,29.10
2018-07-20T12:45:48.309Z,29.20
2018-07-20T12:47:52.295Z,29.00
2018-07-20T12:49:56.249Z,29.20
2018-07-20T12:52:01.167Z,30.00
2018-07-20T12:56:08.723Z,31.30
2018-07-20T12:58:13.361Z,30.90
2018-07-20T13:00:17.636Z,31.30
2018-07-20T13:02:21.600Z,32.00
2018-07-20T13:04:25.786Z,32.50
2018-07-20T13:06:30.545Z,32.90
2018-07-20T13:08:34.835Z,32.70
2018-07-20T13:10:38.981Z,32.90
2018-07-20T13:12:42.949Z,32.90
2018-07-20T13:14:46.961Z,32.70
2018-07-20T13:16:51.197Z,33.00
2018-07-20T13:18:55.139Z,32.70
2018-07-20T13:20:59.098Z,32.20
2018-07-20T13:23:03.105Z,31.40
2018-07-20T13:25:07.337Z,31.70
2018-07-20T13:27:11.481Z,31.30
2018-07-20T13:29:15.772Z,30.80
2018-07-20T13:31:19.927Z,31.20
2018-07-20T13:33:23.893Z,31.80
2018-07-20T13:35:28.225Z,32.00
2018-07-20T13:37:32.269Z,32.00
2018-07-20T13:39:36.571Z,32.30
2018-07-20T13:41:41.659Z,33.10
2018-07-20T13:43:46.458Z,33.20
2018-07-20T13:45:51.525Z,33.30
2018-07-20T13:47:55.521Z,33.20
2018-07-20T13:49:59.507Z,33.00
2018-07-20T13:52:04.323Z,32.80
2018-07-20T13:54:08.613Z,33.40
2018-07-20T13:56:13.056Z,33.80
2018-07-20T13:58:17.205Z,33.80
2018-07-20T14:00:22.390Z,33.80
2018-07-20T14:02:27.429Z,33.60
2018-07-20T14:04:31.954Z,33.50
2018-07-20T14:06:35.949Z,33.60
2018-07-20T14:08:40.781Z,33.90
2018-07-20T14:10:45.786Z,34.40
2018-07-20T14:12:50.252Z,34.90
2018-07-20T14:14:54.835Z,35.40
2018-07-20T14:16:59.089Z,35.20
2018-07-20T14:19:03.782Z,35.40
2018-07-20T14:21:08.510Z,35.30
2018-07-20T14:23:13.009Z,35.30
2018-07-20T14:25:17.525Z,35.20
2018-07-20T14:27:22.077Z,35.40
2018-07-20T14:29:26.946Z,35.80
2018-07-20T14:31:31.348Z,35.70
2018-07-20T14:33:36.059Z,35.50
2018-07-20T14:35:40.555Z,35.40
2018-07-20T14:37:45.975Z,35.30
2018-07-20T14:39:49.986Z,34.60
2018-07-20T14:41:54.254Z,34.30
2018-07-20T14:43:58.789Z,34.20
2018-07-20T14:46:02.803Z,34.60
2018-07-20T14:48:06.800Z,34.60
2018-07-20T14:50:10.773Z,34.90
2018-07-20T14:52:15.493Z,34.90
2018-07-20T14:54:19.785Z,35.00
2018-07-20T14:56:23.733Z,35.20
2018-07-20T14:58:28.380Z,35.40
2018-07-20T15:00:32.641Z,35.50
2018-07-20T15:02:37.155Z,34.30
2018-07-20T15:04:41.130Z,33.70
2018-07-20T15:06:45.278Z,34.20
2018-07-20T15:08:49.409Z,34.80
2018-07-20T15:10:53.573Z,34.80
2018-07-20T15:12:57.525Z,34.90
2018-07-20T15:15:01.480Z,34.60
2018-07-20T15:17:05.929Z,34.00
2018-07-20T15:19:09.925Z,34.10
2018-07-20T15:21:14.301Z,33.70
2018-07-20T15:23:20.019Z,33.20
2018-07-20T15:25:24.482Z,33.30
2018-07-20T15:27:28.576Z,32.60
2018-07-20T15:29:32.683Z,32.10
2018-07-20T15:31:37.721Z,31.70
2018-07-20T15:33:41.942Z,31.60
2018-07-20T15:35:46.617Z,31.50
2018-07-20T15:39:56.004Z,31.10
2018-07-20T15:42:01.023Z,31.10
2018-07-20T15:44:06.949Z,30.70
2018-07-20T15:46:12.072Z,30.40
2018-07-20T15:48:16.701Z,30.50
2018-07-20T15:50:21.231Z,30.70
2018-07-20T15:54:30.840Z,31.90
2018-07-20T15:56:35.593Z,32.70
2018-07-20T15:58:40.138Z,33.50
2018-07-20T16:00:44.662Z,33.80
2018-07-20T16:02:49.165Z,34.00
2018-07-20T16:04:53.321Z,34.10
2018-07-20T16:06:57.830Z,34.20
2018-07-20T16:09:01.843Z,34.20
2018-07-20T16:11:06.393Z,33.90
2018-07-20T16:13:10.686Z,33.60
2018-07-20T16:15:14.681Z,34.10
2018-07-20T16:17:18.664Z,34.20
2018-07-20T16:19:23.157Z,34.40
2018-07-20T16:21:27.128Z,34.60
2018-07-20T16:23:31.985Z,34.60
2018-07-20T16:25:36.618Z,34.50
2018-07-20T16:27:41.069Z,34.30
2018-07-20T16:29:45.646Z,33.70
2018-07-20T16:31:50.169Z,33.20
2018-07-20T16:33:54.666Z,33.10
2018-07-20T16:35:59.458Z,33.20
2018-07-20T16:38:04.359Z,32.70
2018-07-20T16:40:08.837Z,32.20
2018-07-20T16:42:13.354Z,31.80
2018-07-20T16:44:18.098Z,31.30
2018-07-20T16:46:22.909Z,31.10
2018-07-20T16:48:27.445Z,30.80
2018-07-20T16:50:31.405Z,31.00
2018-07-20T16:52:35.341Z,31.00
2018-07-20T16:54:39.853Z,30.90
2018-07-20T16:56:43.801Z,30.90
2018-07-20T16:58:47.772Z,30.80
2018-07-20T17:00:52.001Z,30.70
2018-07-20T17:02:55.998Z,30.40
2018-07-20T17:05:00.134Z,30.20
2018-07-20T17:07:04.464Z,30.50
2018-07-20T17:09:10.604Z,31.00
2018-07-20T17:11:14.513Z,31.30
2018-07-20T17:13:18.489Z,31.80
2018-07-20T17:15:22.730Z,31.90
2018-07-20T17:17:26.736Z,32.00
2018-07-20T17:19:31.045Z,32.20
2018-07-20T17:21:35.700Z,32.20
2018-07-20T17:23:39.669Z,32.40
2018-07-20T17:25:43.650Z,32.80
2018-07-20T17:27:47.714Z,33.10
2018-07-20T17:29:51.811Z,33.10
2018-07-20T17:31:56.382Z,33.20
2018-07-20T17:34:00.429Z,33.40
2018-07-20T17:36:04.377Z,33.40
2018-07-20T17:38:08.316Z,33.40
2018-07-20T17:40:12.858Z,33.20
2018-07-20T17:42:17.171Z,33.40
2018-07-20T17:44:21.244Z,33.60
2018-07-20T17:46:25.369Z,33.50
2018-07-20T17:48:29.496Z,33.60
2018-07-20T17:50:33.444Z,33.50
2018-07-20T17:52:37.406Z,32.90
2018-07-20T17:54:41.373Z,32.30
2018-07-20T17:56:45.441Z,32.30
2018-07-20T17:58:49.426Z,32.40
2018-07-20T18:00:54.241Z,32.60
2018-07-20T18:02:58.494Z,32.40
2018-07-20T18:05:02.475Z,32.30
2018-07-20T18:07:06.441Z,32.20
2018-07-20T18:09:11.077Z,32.30
2018-07-20T18:11:15.026Z,32.40
2018-07-20T18:13:19.305Z,32.20
2018-07-20T18:15:24.173Z,32.10
2018-07-20T18:17:28.121Z,31.90
2018-07-20T18:19:32.494Z,31.70
2018-07-20T18:21:36.532Z,31.30
2018-07-20T18:23:40.821Z,31.00
2018-07-20T18:25:44.773Z,30.60
2018-07-20T18:27:48.729Z,30.20
2018-07-20T18:29:52.688Z,29.90
2018-07-20T18:31:56.709Z,29.40
2018-07-20T18:34:01.193Z,29.10
2018-07-20T18:38:08.937Z,28.60
2018-07-20T18:40:12.939Z,28.30
2018-07-20T18:42:16.934Z,28.10
2018-07-20T18:44:21.305Z,28.00
2018-07-20T18:46:25.812Z,28.10
2018-07-20T18:50:34.077Z,27.90
2018-07-20T18:52:38.649Z,27.40
2018-07-20T18:54:43.034Z,27.00
2018-07-20T18:56:47.041Z,26.60
2018-07-20T18:58:51.037Z,26.30
2018-07-20T19:00:55.005Z,26.30
2018-07-20T19:02:59.656Z,26.30
2018-07-20T19:05:03.809Z,26.30
2018-07-20T19:07:08.156Z,26.10
2018-07-20T19:09:12.690Z,25.90
2018-07-20T19:11:16.760Z,25.70
2018-07-20T19:13:21.060Z,25.70
2018-07-20T19:15:25.237Z,25.80
2018-07-20T19:17:29.229Z,25.70
2018-07-20T19:19:33.210Z,25.60
2018-07-20T19:21:37.213Z,25.40
2018-07-20T19:23:41.548Z,25.20
2018-07-20T19:25:45.744Z,25.00
2018-07-20T19:27:50.082Z,24.90
2018-07-20T19:29:54.048Z,24.80
2018-07-20T19:31:58.320Z,24.70
2018-07-20T19:34:02.294Z,24.60
2018-07-20T19:36:06.933Z,24.50
2018-07-20T19:38:11.208Z,24.40
2018-07-20T19:42:19.531Z,24.20
2018-07-20T19:44:24.182Z,24.20
2018-07-20T19:46:28.849Z,24.10
2018-07-20T19:48:32.993Z,24.00
2018-07-20T19:50:37.052Z,24.10
2018-07-20T19:52:41.737Z,23.90
2018-07-20T19:54:45.742Z,23.90
2018-07-20T19:56:49.747Z,23.80
2018-07-20T19:58:54.303Z,23.70
2018-07-20T20:00:58.402Z,23.80
2018-07-20T20:03:02.385Z,23.60
2018-07-20T20:09:14.752Z,23.40
2018-07-20T20:11:19.001Z,23.40
2018-07-20T20:13:23.029Z,23.30
2018-07-20T20:15:27.396Z,23.20
2018-07-20T20:17:31.746Z,23.20
2018-07-20T20:19:35.677Z,23.30
2018-07-20T20:21:39.962Z,23.20
2018-07-20T20:23:43.945Z,23.10
2018-07-20T20:25:48.121Z,23.10
2018-07-20T20:27:52.078Z,23.00
2018-07-20T20:29:56.477Z,23.00
2018-07-20T20:32:00.437Z,22.90
2018-07-20T20:34:04.434Z,23.00
2018-07-20T20:36:08.818Z,22.80
2018-07-20T20:38:13.142Z,22.80
2018-07-20T20:42:20.734Z,22.90
2018-07-20T20:44:24.705Z,22.80
2018-07-20T20:46:28.913Z,22.70
2018-07-20T20:48:32.933Z,22.70
2018-07-20T20:50:36.933Z,22.70
2018-07-20T20:52:40.881Z,22.60
2018-07-20T20:54:44.893Z,22.60
2018-07-20T20:56:48.958Z,22.60
2018-07-20T20:58:53.308Z,22.60
2018-07-20T21:00:57.501Z,22.40
2018-07-20T21:03:01.804Z,22.40
2018-07-20T21:05:05.754Z,22.40
2018-07-20T21:07:09.804Z,22.40
2018-07-20T21:09:13.802Z,22.30
2018-07-20T21:11:17.761Z,22.30
2018-07-20T21:13:22.061Z,22.30
2018-07-20T21:15:26.021Z,22.10
2018-07-20T21:17:30.365Z,22.00
2018-07-20T21:19:34.732Z,22.10
2018-07-20T21:23:42.785Z,22.10
2018-07-20T21:25:47.125Z,21.80
2018-07-20T21:29:54.756Z,21.90
2018-07-20T21:31:59.131Z,22.00
2018-07-20T21:34:04.066Z,21.90
2018-07-20T21:38:11.672Z,21.80
2018-07-20T21:40:15.626Z,21.80
2018-07-20T21:42:19.867Z,21.80
2018-07-20T21:44:24.010Z,21.60
2018-07-20T21:46:28.011Z,21.60
2018-07-20T21:48:32.294Z,21.40
2018-07-20T21:50:36.993Z,21.50
2018-07-20T21:52:41.005Z,21.50
2018-07-20T21:54:45.007Z,21.50
2018-07-20T21:56:49.565Z,21.30
2018-07-20T21:58:53.829Z,21.20
2018-07-20T22:00:57.928Z,21.20
2018-07-20T22:03:02.037Z,21.10
2018-07-20T22:05:05.983Z,21.00
2018-07-20T22:07:10.062Z,21.00
2018-07-20T22:09:14.029Z,20.90
2018-07-20T22:11:17.989Z,21.00
2018-07-20T22:13:22.261Z,20.80
2018-07-20T22:15:26.237Z,20.90
2018-07-20T22:17:30.206Z,20.90
2018-07-20T22:19:34.163Z,20.90
2018-07-20T22:21:38.165Z,20.90
2018-07-20T22:25:46.366Z,20.70
2018-07-20T22:27:50.477Z,20.70
2018-07-20T22:29:54.684Z,20.60
2018-07-20T22:31:59.177Z,20.50
2018-07-20T22:34:03.165Z,20.60
2018-07-20T22:36:07.228Z,20.70
2018-07-20T22:38:11.198Z,20.70
2018-07-20T22:40:15.255Z,20.80
2018-07-20T22:44:22.944Z,20.70
2018-07-20T22:46:27.153Z,20.60
2018-07-20T22:48:31.174Z,20.50
2018-07-20T22:50:35.490Z,20.40
2018-07-20T22:52:39.505Z,20.40
2018-07-20T22:54:43.574Z,20.40
2018-07-20T22:56:47.552Z,20.40
2018-07-20T22:58:51.633Z,20.30
2018-07-20T23:00:55.929Z,20.30
2018-07-20T23:02:59.935Z,20.30
2018-07-20T23:05:04.265Z,20.20
2018-07-20T23:07:08.910Z,20.10
2018-07-20T23:09:12.883Z,20.20
2018-07-20T23:13:20.884Z,20.30
2018-07-20T23:15:24.852Z,20.10
2018-07-20T23:17:28.813Z,19.90
2018-07-20T23:19:33.131Z,19.80
2018-07-20T23:21:37.461Z,19.90
2018-07-20T23:23:41.428Z,19.90
2018-07-20T23:25:45.401Z,20.00
2018-07-20T23:27:49.402Z,20.00
2018-07-20T23:29:53.609Z,19.90
2018-07-20T23:31:58.085Z,19.90
2018-07-20T23:36:06.542Z,19.90
2018-07-20T23:38:10.856Z,19.90
2018-07-20T23:40:15.279Z,19.90
2018-07-20T23:42:19.434Z,19.60
2018-07-20T23:44:23.429Z,19.50
2018-07-20T23:46:27.873Z,19.60
2018-07-20T23:50:35.848Z,19.70
2018-07-20T23:52:39.818Z,19.70
2018-07-20T23:54:43.925Z,19.50
2018-07-20T23:56:47.914Z,19.40
2018-07-20T23:58:52.230Z,19.30
